createdAt,value
2018-07-26T00:01:35.612Z,6.23
2018-07-26T00:04:04.968Z,6.87
2018-07-26T00:06:34.336Z,6.90
2018-07-26T00:09:04.579Z,6.83
2018-07-26T00:11:33.892Z,6.58
2018-07-26T00:14:03.438Z,6.37
2018-07-26T00:16:32.770Z,7.12
2018-07-26T00:19:05.715Z,8.00
2018-07-26T00:21:35.129Z,7.57
2018-07-26T00:24:04.508Z,7.57
2018-07-26T00:26:33.783Z,8.33
2018-07-26T00:29:03.115Z,7.17
2018-07-26T00:31:32.525Z,8.40
2018-07-26T00:34:01.790Z,7.90
2018-07-26T00:36:31.115Z,7.87
2018-07-26T00:42:02.858Z,7.75
2018-07-26T00:44:31.916Z,8.50
2018-07-26T00:47:01.302Z,9.47
2018-07-26T00:49:30.681Z,9.80
2018-07-26T00:52:00.012Z,9.63
2018-07-26T00:54:29.421Z,9.80
2018-07-26T00:56:58.954Z,9.17
2018-07-26T00:59:28.586Z,8.97
2018-07-26T01:01:58.141Z,8.67
2018-07-26T01:04:27.497Z,8.53
2018-07-26T01:06:56.915Z,9.00
2018-07-26T01:09:26.509Z,9.73
2018-07-26T01:11:56.530Z,9.73
2018-07-26T01:14:26.463Z,9.13
2018-07-26T01:16:56.609Z,8.70
2018-07-26T01:19:26.635Z,9.13
2018-07-26T01:21:56.579Z,9.53
2018-07-26T01:24:26.541Z,10.03
2018-07-26T01:26:56.569Z,9.78
2018-07-26T01:29:26.575Z,9.80
2018-07-26T01:32:02.426Z,9.58
2018-07-26T01:34:31.850Z,9.90
2018-07-26T01:37:01.315Z,10.15
2018-07-26T01:39:30.712Z,11.40
2018-07-26T01:42:00.134Z,10.23
2018-07-26T01:44:29.555Z,10.50
2018-07-26T01:46:58.915Z,9.87
2018-07-26T01:49:28.274Z,11.30
2018-07-26T01:51:57.683Z,11.20
2018-07-26T01:54:27.230Z,11.37
2018-07-26T01:56:56.626Z,12.83
2018-07-26T01:59:26.528Z,12.80
2018-07-26T02:01:56.802Z,12.10
2018-07-26T02:04:26.561Z,12.13
2018-07-26T02:06:56.676Z,12.25
2018-07-26T02:09:26.716Z,13.62
2018-07-26T02:11:56.678Z,12.25
2018-07-26T02:14:31.839Z,13.25
2018-07-26T02:17:01.226Z,12.57
2018-07-26T02:19:30.667Z,12.30
2018-07-26T02:22:00.108Z,12.90
2018-07-26T02:24:29.441Z,13.37
2018-07-26T02:26:58.948Z,14.97
2018-07-26T02:29:28.315Z,14.17
2018-07-26T02:31:57.701Z,13.30
2018-07-26T02:34:27.107Z,11.53
2018-07-26T02:36:56.460Z,10.95
2018-07-26T02:39:26.594Z,10.00
2018-07-26T02:41:56.525Z,8.53
2018-07-26T02:44:26.499Z,7.20
2018-07-26T02:46:56.741Z,7.65
2018-07-26T02:49:26.749Z,7.10
2018-07-26T02:51:56.799Z,7.45
2018-07-26T02:54:26.725Z,8.00
2018-07-26T02:56:56.835Z,10.13
2018-07-26T02:59:26.856Z,11.25
2018-07-26T03:01:56.806Z,12.05
2018-07-26T03:04:26.772Z,12.20
2018-07-26T03:06:56.779Z,11.45
2018-07-26T03:09:26.966Z,13.08
2018-07-26T03:11:56.751Z,12.82
2018-07-26T03:14:26.844Z,13.40
2018-07-26T03:16:56.917Z,12.65
2018-07-26T03:19:26.724Z,12.73
2018-07-26T03:21:56.541Z,12.65
2018-07-26T03:24:26.609Z,13.93
2018-07-26T03:26:56.534Z,13.85
2018-07-26T03:29:26.703Z,13.37
2018-07-26T03:31:56.850Z,12.75
2018-07-26T03:34:26.574Z,13.28
2018-07-26T03:36:56.688Z,12.88
2018-07-26T03:39:26.984Z,12.03
2018-07-26T03:41:56.878Z,12.35
2018-07-26T03:44:26.851Z,13.73
2018-07-26T03:46:56.914Z,12.07
2018-07-26T03:49:26.858Z,12.70
2018-07-26T03:51:56.889Z,10.85
2018-07-26T03:54:27.202Z,10.75
2018-07-26T03:56:56.924Z,11.30
2018-07-26T03:59:27.088Z,10.77
2018-07-26T04:01:56.980Z,11.48
2018-07-26T04:04:26.919Z,10.55
2018-07-26T04:06:56.627Z,11.35
2018-07-26T04:09:26.710Z,10.73
2018-07-26T04:11:56.726Z,10.32
2018-07-26T04:14:26.771Z,10.90
2018-07-26T04:16:57.018Z,12.20
2018-07-26T04:19:27.085Z,12.47
2018-07-26T04:21:57.089Z,12.13
2018-07-26T04:24:27.032Z,12.17
2018-07-26T04:26:57.100Z,13.03
2018-07-26T04:29:27.006Z,11.20
2018-07-26T04:31:57.305Z,12.40
2018-07-26T04:34:27.170Z,11.45
2018-07-26T04:36:57.016Z,13.25
2018-07-26T04:39:27.089Z,11.28
2018-07-26T04:41:57.146Z,10.43
2018-07-26T04:44:26.975Z,10.43
2018-07-26T04:46:57.331Z,11.48
2018-07-26T04:49:27.242Z,11.35
2018-07-26T04:51:57.086Z,10.85
2018-07-26T04:54:27.183Z,10.60
2018-07-26T04:56:57.135Z,11.05
2018-07-26T04:59:27.194Z,10.32
2018-07-26T05:01:57.197Z,11.15
2018-07-26T05:04:27.110Z,9.93
2018-07-26T05:06:57.169Z,9.03
2018-07-26T05:09:27.537Z,11.05
2018-07-26T05:11:56.869Z,10.85
2018-07-26T05:14:26.988Z,11.78
2018-07-26T05:16:57.080Z,11.40
2018-07-26T05:19:27.147Z,9.73
2018-07-26T05:21:57.207Z,9.30
2018-07-26T05:24:27.118Z,8.28
2018-07-26T05:26:57.318Z,9.18
2018-07-26T05:29:26.973Z,8.60
2018-07-26T05:31:56.964Z,7.53
2018-07-26T05:34:27.203Z,9.55
2018-07-26T05:36:57.264Z,8.75
2018-07-26T05:39:27.221Z,9.15
2018-07-26T05:41:56.839Z,9.83
2018-07-26T05:44:26.986Z,9.60
2018-07-26T05:46:56.972Z,10.05
2018-07-26T05:49:27.083Z,8.90
2018-07-26T05:51:57.247Z,7.85
2018-07-26T05:54:27.150Z,9.10
2018-07-26T05:56:57.337Z,8.20
2018-07-26T05:59:27.253Z,9.50
2018-07-26T06:01:56.992Z,9.45
2018-07-26T06:04:27.032Z,8.00
2018-07-26T06:06:57.368Z,7.37
2018-07-26T06:09:27.388Z,6.58
2018-07-26T06:11:57.370Z,7.97
2018-07-26T06:14:26.905Z,7.25
2018-07-26T06:16:57.034Z,6.43
2018-07-26T06:19:27.388Z,6.65
2018-07-26T06:21:57.453Z,6.65
2018-07-26T06:24:27.298Z,5.87
2018-07-26T06:26:57.368Z,6.15
2018-07-26T06:29:27.379Z,6.55
2018-07-26T06:31:57.046Z,5.30
2018-07-26T06:34:27.157Z,4.87
2018-07-26T06:36:57.305Z,5.20
2018-07-26T06:39:27.464Z,5.30
2018-07-26T06:41:57.382Z,5.12
2018-07-26T06:44:27.439Z,4.25
2018-07-26T06:46:57.446Z,5.17
2018-07-26T06:49:27.350Z,4.63
2018-07-26T06:51:57.706Z,4.85
2018-07-26T06:54:27.414Z,4.65
2018-07-26T06:56:57.428Z,4.50
2018-07-26T06:59:27.381Z,4.10
2018-07-26T07:01:57.447Z,4.07
2018-07-26T07:04:27.468Z,3.80
2018-07-26T07:06:57.385Z,4.10
2018-07-26T07:09:27.425Z,3.80
2018-07-26T07:11:57.426Z,3.22
2018-07-26T07:14:27.442Z,3.67
2018-07-26T07:16:57.517Z,3.83
2018-07-26T07:19:27.478Z,3.67
2018-07-26T07:21:57.578Z,3.75
2018-07-26T07:24:27.476Z,3.35
2018-07-26T07:26:57.428Z,3.10
2018-07-26T07:29:27.642Z,3.40
2018-07-26T07:31:57.439Z,3.13
2018-07-26T07:34:27.535Z,3.00
2018-07-26T07:36:57.615Z,3.02
2018-07-26T07:39:27.570Z,2.77
2018-07-26T07:41:57.466Z,2.55
2018-07-26T07:44:27.514Z,2.55
2018-07-26T07:46:57.502Z,2.47
2018-07-26T07:49:27.708Z,2.58
2018-07-26T07:51:57.482Z,2.67
2018-07-26T07:54:27.636Z,2.52
2018-07-26T07:56:57.517Z,1.98
2018-07-26T07:59:27.560Z,1.80
2018-07-26T08:01:57.503Z,1.73
2018-07-26T08:04:27.539Z,2.00
2018-07-26T08:06:57.532Z,2.00
2018-07-26T08:09:27.635Z,1.75
2018-07-26T08:11:57.468Z,1.67
2018-07-26T08:14:27.521Z,1.70
2018-07-26T08:16:57.540Z,1.80
2018-07-26T08:19:27.573Z,1.70
2018-07-26T08:21:57.647Z,1.32
2018-07-26T08:24:27.603Z,1.75
2018-07-26T08:26:57.648Z,1.70
2018-07-26T08:29:27.746Z,1.55
2018-07-26T08:31:57.646Z,1.60
2018-07-26T08:34:27.730Z,1.80
2018-07-26T08:36:57.650Z,1.90
2018-07-26T08:39:27.623Z,2.00
2018-07-26T08:41:57.649Z,1.70
2018-07-26T08:44:27.753Z,1.80
2018-07-26T08:46:57.739Z,1.70
2018-07-26T08:49:27.675Z,2.05
2018-07-26T08:51:59.813Z,2.10
2018-07-26T08:54:36.231Z,2.10
2018-07-26T08:57:11.897Z,2.20
2018-07-26T08:59:47.207Z,1.80
2018-07-26T09:02:22.042Z,1.77
2018-07-26T09:04:56.356Z,2.00
2018-07-26T09:07:25.765Z,2.37
2018-07-26T09:09:59.213Z,2.00
2018-07-26T09:12:28.838Z,2.17
2018-07-26T09:15:04.413Z,1.67
2018-07-26T09:17:40.574Z,2.10
2018-07-26T09:20:09.868Z,2.40
2018-07-26T09:22:39.257Z,1.90
2018-07-26T09:25:14.144Z,2.07
2018-07-26T09:27:43.855Z,1.80
2018-07-26T09:30:13.202Z,2.02
2018-07-26T09:32:42.617Z,1.95
2018-07-26T09:35:11.994Z,2.00
2018-07-26T09:37:41.389Z,1.72
2018-07-26T09:40:10.850Z,1.62
2018-07-26T09:42:40.230Z,1.67
2018-07-26T09:45:09.805Z,1.98
2018-07-26T09:47:39.192Z,1.90
2018-07-26T09:50:08.490Z,1.77
2018-07-26T09:52:37.844Z,1.98
2018-07-26T09:55:07.307Z,1.70
2018-07-26T09:57:36.636Z,1.80
2018-07-26T10:00:07.204Z,1.90
2018-07-26T10:02:36.534Z,1.47
2018-07-26T10:05:06.630Z,1.53
2018-07-26T10:07:36.114Z,1.60
2018-07-26T10:10:06.157Z,1.70
2018-07-26T10:12:35.483Z,1.75
2018-07-26T10:15:05.704Z,1.72
2018-07-26T10:17:35.034Z,1.70
2018-07-26T10:20:04.793Z,1.70
2018-07-26T10:22:34.706Z,1.77
2018-07-26T10:25:04.096Z,1.90
2018-07-26T10:27:33.361Z,1.80
2018-07-26T10:30:02.653Z,1.87
2018-07-26T10:32:31.968Z,1.87
2018-07-26T10:35:01.235Z,2.10
2018-07-26T10:37:30.591Z,1.90
2018-07-26T10:39:59.883Z,2.13
2018-07-26T10:42:29.163Z,1.93
2018-07-26T10:44:58.471Z,2.30
2018-07-26T10:47:27.852Z,2.00
2018-07-26T10:49:57.921Z,2.10
2018-07-26T10:52:27.924Z,1.90
2018-07-26T10:54:57.836Z,2.00
2018-07-26T10:57:27.835Z,2.15
2018-07-26T10:59:57.853Z,2.20
2018-07-26T11:02:27.872Z,2.40
2018-07-26T11:04:57.874Z,2.02
2018-07-26T11:07:27.930Z,2.52
2018-07-26T11:09:57.903Z,2.17
2018-07-26T11:12:27.694Z,2.20
2018-07-26T11:15:35.709Z,2.10
2018-07-26T11:18:05.571Z,2.30
2018-07-26T11:20:34.896Z,2.33
2018-07-26T11:23:04.254Z,2.45
2018-07-26T11:25:33.583Z,2.00
2018-07-26T11:28:02.957Z,2.20
2018-07-26T11:30:32.481Z,2.50
2018-07-26T11:33:01.810Z,2.20
2018-07-26T11:35:31.110Z,2.50
2018-07-26T11:38:00.468Z,2.33
2018-07-26T11:40:29.707Z,2.23
2018-07-26T11:42:59.037Z,2.00
2018-07-26T11:45:28.377Z,2.67
2018-07-26T11:47:58.007Z,2.10
2018-07-26T11:50:28.068Z,2.12
2018-07-26T11:52:58.002Z,2.23
2018-07-26T11:55:27.946Z,2.63
2018-07-26T11:58:04.703Z,2.30
2018-07-26T12:00:33.988Z,2.33
2018-07-26T12:03:03.370Z,2.25
2018-07-26T12:05:32.757Z,2.50
2018-07-26T12:08:02.369Z,2.30
2018-07-26T12:10:31.936Z,2.10
2018-07-26T12:13:01.281Z,2.30
2018-07-26T12:15:30.609Z,2.30
2018-07-26T12:17:59.974Z,2.30
2018-07-26T12:20:29.274Z,2.33
2018-07-26T12:22:58.606Z,2.13
2018-07-26T12:25:28.080Z,2.27
2018-07-26T12:27:58.081Z,2.40
2018-07-26T12:30:28.119Z,2.58
2018-07-26T12:32:58.102Z,2.45
2018-07-26T12:35:28.144Z,2.40
2018-07-26T12:37:58.180Z,2.33
2018-07-26T12:40:28.054Z,2.37
2018-07-26T12:42:58.328Z,2.60
2018-07-26T12:45:28.136Z,2.77
2018-07-26T12:47:58.156Z,2.33
2018-07-26T12:50:28.097Z,2.47
2018-07-26T12:52:58.116Z,2.47
2018-07-26T12:55:28.407Z,2.20
2018-07-26T12:57:58.104Z,2.40
2018-07-26T13:00:28.191Z,2.60
2018-07-26T13:02:58.151Z,2.52
2018-07-26T13:05:28.175Z,2.70
2018-07-26T13:07:58.181Z,2.70
2018-07-26T13:10:28.237Z,2.77
2018-07-26T13:12:58.246Z,2.45
2018-07-26T13:15:28.194Z,2.55
2018-07-26T13:17:58.312Z,2.50
2018-07-26T13:20:28.252Z,2.45
2018-07-26T13:22:58.289Z,2.60
2018-07-26T13:25:28.309Z,2.33
2018-07-26T13:27:58.235Z,2.60
2018-07-26T13:30:28.353Z,2.70
2018-07-26T13:32:58.241Z,2.50
2018-07-26T13:35:28.223Z,2.47
2018-07-26T13:37:58.177Z,2.33
2018-07-26T13:40:28.285Z,2.45
2018-07-26T13:42:58.909Z,2.50
2018-07-26T13:45:28.402Z,2.30
2018-07-26T13:47:58.279Z,2.30
2018-07-26T13:50:28.327Z,2.37
2018-07-26T13:52:58.258Z,2.13
2018-07-26T13:55:28.451Z,2.20
2018-07-26T13:57:58.414Z,2.00
2018-07-26T14:00:28.346Z,2.12
2018-07-26T14:02:58.314Z,2.07
2018-07-26T14:05:28.335Z,2.75
2018-07-26T14:07:58.491Z,2.43
2018-07-26T14:10:28.398Z,2.70
2018-07-26T14:12:58.334Z,2.40
2018-07-26T14:15:28.429Z,2.40
2018-07-26T14:17:58.302Z,2.60
2018-07-26T14:20:28.463Z,2.77
2018-07-26T14:22:58.340Z,2.70
2018-07-26T14:25:28.458Z,2.70
2018-07-26T14:27:58.336Z,2.70
2018-07-26T14:30:28.444Z,2.70
2018-07-26T14:32:58.581Z,2.77
2018-07-26T14:35:28.552Z,2.70
2018-07-26T14:37:58.469Z,2.50
2018-07-26T14:40:28.439Z,2.50
2018-07-26T14:42:58.465Z,2.80
2018-07-26T14:45:28.430Z,2.77
2018-07-26T14:47:58.501Z,2.77
2018-07-26T14:50:28.690Z,2.98
2018-07-26T14:52:58.465Z,2.92
2018-07-26T14:55:28.414Z,2.87
2018-07-26T14:57:58.429Z,3.17
2018-07-26T15:00:28.443Z,2.80
2018-07-26T15:02:58.406Z,2.97
2018-07-26T15:05:28.729Z,3.10
2018-07-26T15:07:58.618Z,3.00
2018-07-26T15:10:28.582Z,3.40
2018-07-26T15:12:58.447Z,3.60
2018-07-26T15:15:28.462Z,3.62
2018-07-26T15:18:05.267Z,3.77
2018-07-26T15:23:37.324Z,3.53
2018-07-26T15:26:33.179Z,3.53
2018-07-26T15:29:02.565Z,3.50
2018-07-26T15:31:31.950Z,3.30
2018-07-26T15:34:01.350Z,3.80
2018-07-26T15:36:30.741Z,3.80
2018-07-26T15:39:00.113Z,3.23
2018-07-26T15:41:29.530Z,3.90
2018-07-26T15:43:58.867Z,3.93
2018-07-26T15:46:28.268Z,3.60
2018-07-26T15:48:57.650Z,3.70
2018-07-26T15:51:27.103Z,3.70
2018-07-26T15:53:56.490Z,3.60
2018-07-26T15:56:25.832Z,3.77
2018-07-26T15:58:55.255Z,3.73
2018-07-26T16:01:25.073Z,3.72
2018-07-26T16:03:54.570Z,3.73
2018-07-26T16:06:23.907Z,3.80
2018-07-26T16:08:53.296Z,3.47
2018-07-26T16:11:22.689Z,3.47
2018-07-26T16:13:51.789Z,3.70
2018-07-26T16:16:21.196Z,3.73
2018-07-26T16:18:50.590Z,3.58
2018-07-26T16:21:20.319Z,4.10
2018-07-26T16:23:49.675Z,3.98
2018-07-26T16:26:19.076Z,4.55
2018-07-26T16:28:48.564Z,4.20
2018-07-26T16:31:17.941Z,3.90
2018-07-26T16:33:47.290Z,3.70
2018-07-26T16:36:16.698Z,3.80
2018-07-26T16:38:46.194Z,3.62
2018-07-26T16:41:15.872Z,3.90
2018-07-26T16:43:45.225Z,3.95
2018-07-26T16:46:14.622Z,4.17
2018-07-26T16:48:43.985Z,4.33
2018-07-26T16:51:13.410Z,4.55
2018-07-26T16:53:42.777Z,4.20
2018-07-26T16:56:12.164Z,4.10
2018-07-26T16:58:41.631Z,4.70
2018-07-26T17:01:11.199Z,4.87
2018-07-26T17:03:40.618Z,5.03
2018-07-26T17:06:09.999Z,4.53
2018-07-26T17:08:39.446Z,4.83
2018-07-26T17:11:09.374Z,5.20
2018-07-26T17:13:38.772Z,5.03
2018-07-26T17:16:08.173Z,4.87
2018-07-26T17:18:37.598Z,5.10
2018-07-26T17:21:07.005Z,4.70
2018-07-26T17:23:36.363Z,5.03
2018-07-26T17:26:05.802Z,5.00
2018-07-26T17:28:35.771Z,5.35
2018-07-26T17:31:05.929Z,5.10
2018-07-26T17:33:35.855Z,4.85
2018-07-26T17:36:05.768Z,5.37
2018-07-26T17:38:35.787Z,5.03
2018-07-26T17:41:05.900Z,5.50
2018-07-26T17:43:35.849Z,5.25
2018-07-26T17:46:05.881Z,4.78
2018-07-26T17:48:35.902Z,4.97
2018-07-26T17:51:05.766Z,4.97
2018-07-26T17:53:35.767Z,4.75
2018-07-26T17:56:05.706Z,5.23
2018-07-26T17:58:35.445Z,4.70
2018-07-26T18:01:05.751Z,5.17
2018-07-26T18:03:35.832Z,5.03
2018-07-26T18:06:06.182Z,4.92
2018-07-26T18:08:35.867Z,5.00
2018-07-26T18:11:05.847Z,5.05
2018-07-26T18:13:35.776Z,5.15
2018-07-26T18:16:05.808Z,5.10
2018-07-26T18:18:35.950Z,5.00
2018-07-26T18:21:05.872Z,5.40
2018-07-26T18:23:35.967Z,5.10
2018-07-26T18:26:05.799Z,5.00
2018-07-26T18:28:35.893Z,5.53
2018-07-26T18:31:06.075Z,5.00
2018-07-26T18:33:35.940Z,4.90
2018-07-26T18:36:06.098Z,5.22
2018-07-26T18:38:35.887Z,4.83
2018-07-26T18:41:05.785Z,4.92
2018-07-26T18:43:35.733Z,5.30
2018-07-26T18:46:06.003Z,4.97
2018-07-26T18:48:35.934Z,5.20
2018-07-26T18:51:05.537Z,5.30
2018-07-26T18:53:35.689Z,5.10
2018-07-26T18:56:05.984Z,5.35
2018-07-26T18:58:35.877Z,5.20
2018-07-26T19:01:05.906Z,4.60
2018-07-26T19:03:36.022Z,5.17
2018-07-26T19:06:05.932Z,4.50
2018-07-26T19:08:35.820Z,5.12
2018-07-26T19:11:05.742Z,5.30
2018-07-26T19:13:35.784Z,4.78
2018-07-26T19:16:06.856Z,4.80
2018-07-26T19:18:36.209Z,4.97
2018-07-26T19:21:06.300Z,5.00
2018-07-26T19:23:36.038Z,5.20
2018-07-26T19:26:06.294Z,4.70
2018-07-26T19:28:36.027Z,5.05
2018-07-26T19:31:05.733Z,5.00
2018-07-26T19:33:35.842Z,5.20
2018-07-26T19:36:06.105Z,4.67
2018-07-26T19:38:36.026Z,4.92
2018-07-26T19:41:06.058Z,4.90
2018-07-26T19:43:36.022Z,5.12
2018-07-26T19:46:06.046Z,5.17
2018-07-26T19:48:36.030Z,5.10
2018-07-26T19:51:06.068Z,5.47
2018-07-26T19:53:35.933Z,5.20
2018-07-26T19:56:06.021Z,4.60
2018-07-26T19:58:35.982Z,4.92
2018-07-26T20:01:05.737Z,5.05
2018-07-26T20:03:35.860Z,5.07
2018-07-26T20:06:05.729Z,5.05
2018-07-26T20:08:35.875Z,4.93
2018-07-26T20:11:06.541Z,5.35
2018-07-26T20:13:36.281Z,4.95
2018-07-26T20:16:06.051Z,4.78
2018-07-26T20:18:36.017Z,4.95
2018-07-26T20:21:06.319Z,4.70
2018-07-26T20:23:36.092Z,4.92
2018-07-26T20:26:06.046Z,5.28
2018-07-26T20:28:36.175Z,4.67
2018-07-26T20:31:06.079Z,4.80
2018-07-26T20:33:36.201Z,5.30
2018-07-26T20:36:06.069Z,4.90
2018-07-26T20:38:36.087Z,4.90
2018-07-26T20:41:06.099Z,4.90
2018-07-26T20:43:35.939Z,5.10
2018-07-26T20:46:06.225Z,5.08
2018-07-26T20:48:36.121Z,5.03
2018-07-26T20:51:06.556Z,4.97
2018-07-26T20:53:36.356Z,5.58
2018-07-26T20:56:06.546Z,5.10
2018-07-26T20:58:36.111Z,5.00
2018-07-26T21:01:06.103Z,5.12
2018-07-26T21:03:36.065Z,5.25
2018-07-26T21:06:06.133Z,5.22
2018-07-26T21:08:36.147Z,5.10
2018-07-26T21:11:06.602Z,5.30
2018-07-26T21:13:36.143Z,5.30
2018-07-26T21:16:06.371Z,4.97
2018-07-26T21:18:36.152Z,5.20
2018-07-26T21:21:06.117Z,5.42
2018-07-26T21:23:36.168Z,5.72
2018-07-26T21:26:06.201Z,5.40
2018-07-26T21:28:36.184Z,5.00
2018-07-26T21:31:06.249Z,5.42
2018-07-26T21:33:36.482Z,5.60
2018-07-26T21:36:06.339Z,5.35
2018-07-26T21:38:36.173Z,5.37
2018-07-26T21:41:06.234Z,5.00
2018-07-26T21:43:36.176Z,5.10
2018-07-26T21:46:06.296Z,5.67
2018-07-26T21:48:36.337Z,5.20
2018-07-26T21:51:06.270Z,4.90
2018-07-26T21:53:36.377Z,4.90
2018-07-26T21:56:06.456Z,5.35
2018-07-26T21:58:36.128Z,5.60
2018-07-26T22:01:06.379Z,5.58
2018-07-26T22:03:36.330Z,5.97
2018-07-26T22:06:06.491Z,5.30
2018-07-26T22:08:36.380Z,5.40
2018-07-26T22:11:06.403Z,5.58
2018-07-26T22:13:36.331Z,5.28
2018-07-26T22:16:06.361Z,5.47
2018-07-26T22:18:36.447Z,5.62
2018-07-26T22:21:06.479Z,5.90
2018-07-26T22:23:36.488Z,5.92
2018-07-26T22:26:06.404Z,5.92
2018-07-26T22:28:36.353Z,5.78
2018-07-26T22:31:06.462Z,6.00
2018-07-26T22:33:36.639Z,5.92
2018-07-26T22:36:06.461Z,6.00
2018-07-26T22:38:36.472Z,6.20
2018-07-26T22:41:06.453Z,5.92
2018-07-26T22:43:36.338Z,5.80
2018-07-26T22:46:06.370Z,5.90
2018-07-26T22:48:36.466Z,6.15
2018-07-26T22:51:06.377Z,5.83
2018-07-26T22:53:36.550Z,5.72
2018-07-26T22:56:06.527Z,6.08
2018-07-26T22:58:36.158Z,6.35
2018-07-26T23:01:06.342Z,6.27
2018-07-26T23:03:36.623Z,6.33
2018-07-26T23:06:06.106Z,6.00
2018-07-26T23:08:36.419Z,6.37
2018-07-26T23:11:06.852Z,6.45
2018-07-26T23:13:36.394Z,6.30
2018-07-26T23:16:06.501Z,6.22
2018-07-26T23:18:36.593Z,6.00
2018-07-26T23:21:06.936Z,6.25
2018-07-26T23:23:36.201Z,6.37
2018-07-26T23:26:06.342Z,6.40
2018-07-26T23:28:36.507Z,6.83
2018-07-26T23:31:06.387Z,6.30
2018-07-26T23:33:36.289Z,6.40
2018-07-26T23:36:06.604Z,6.30
2018-07-26T23:38:36.700Z,6.83
2018-07-26T23:41:06.563Z,6.35
2018-07-26T23:43:36.173Z,6.50
2018-07-26T23:46:05.621Z,6.87
2018-07-26T23:48:34.973Z,6.70
2018-07-26T23:51:04.330Z,6.87
2018-07-26T23:53:33.641Z,6.80
2018-07-26T23:56:02.986Z,6.93
2018-07-26T23:58:32.347Z,6.77
